Time;durP1;ratioP1;P1;durP2;ratioP2;P2;SDS_P1;SDS_P2;PMS_P1;PMS_P2;Temp;Humidity;BMP_temperature;BMP_pressure;BME280_temperature;BME280_humidity;BME280_pressure;Samples;Min_cycle;Max_cycle;Signal;HPM_P1;HPM_P2
2021/08/19 00:01:06;;;;;;;3.80;2.20;;;16.00;99.90;;;;;;5052616;28;20398;-83
2021/08/19 00:03:31;;;;;;;;;;;15.90;99.90;;;;;;5049995;28;20037;-81
2021/08/19 00:05:58;;;;;;;4.57;2.47;;;15.90;99.90;;;;;;5050640;28;19917;-82
2021/08/19 00:08:24;;;;;;;6.32;3.05;;;16.10;99.90;;;;;;5049913;28;20501;-82
2021/08/19 00:10:49;;;;;;;1.92;1.48;;;15.90;99.90;;;;;;5050077;28;20040;-82
2021/08/19 00:13:15;;;;;;;;;;;15.90;99.90;;;;;;5050852;28;20037;-82
2021/08/19 00:15:41;;;;;;;2.42;1.88;;;16.00;99.90;;;;;;5050424;28;20283;-82
2021/08/19 00:18:07;;;;;;;2.45;2.03;;;15.80;99.90;;;;;;5050955;28;20045;-82
2021/08/19 00:20:33;;;;;;;;;;;15.70;99.90;;;;;;5051768;28;20037;-83
2021/08/19 00:23:01;;;;;;;4.43;2.47;;;15.90;99.90;;;;;;5050655;28;20007;-83
2021/08/19 00:25:29;;;;;;;3.25;2.38;;;15.90;99.90;;;;;;5051793;28;20489;-83
2021/08/19 00:27:55;;;;;;;3.35;2.15;;;15.80;99.90;;;;;;5043801;28;20041;-82
2021/08/19 00:30:20;;;;;;;2.30;1.33;;;15.70;99.90;;;;;;5050664;28;20037;-81
2021/08/19 00:32:46;;;;;;;;;;;15.80;99.90;;;;;;5051664;28;20039;-81
2021/08/19 00:35:12;;;;;;;3.83;2.50;;;15.60;99.90;;;;;;5050261;28;19917;-80
2021/08/19 00:37:38;;;;;;;6.82;2.50;;;15.60;99.90;;;;;;5051986;28;20072;-81
2021/08/19 00:40:05;;;;;;;3.10;1.60;;;15.70;99.90;;;;;;5051183;28;20075;-81
2021/08/19 00:42:32;;;;;;;6.85;2.95;;;15.70;99.90;;;;;;5051109;28;20033;-82
2021/08/19 00:44:58;;;;;;;3.42;1.95;;;15.80;99.90;;;;;;5051510;28;20067;-81
2021/08/19 00:47:30;;;;;;;4.68;2.50;;;15.60;99.90;;;;;;5050107;28;20151;-81
2021/08/19 00:50:00;;;;;;;5.25;3.08;;;15.60;99.90;;;;;;5050984;28;20115;-80
2021/08/19 00:52:28;;;;;;;3.55;2.15;;;15.70;99.90;;;;;;5049955;28;20137;-83
2021/08/19 00:54:55;;;;;;;3.50;1.85;;;15.70;99.90;;;;;;5050585;28;20112;-82
2021/08/19 00:57:21;;;;;;;3.20;2.28;;;15.50;99.90;;;;;;5049100;28;20029;-81
2021/08/19 00:59:48;;;;;;;4.13;2.28;;;15.90;99.90;;;;;;5052733;28;20112;-83
2021/08/19 01:02:14;;;;;;;4.30;2.33;;;15.70;99.90;;;;;;5048359;28;20068;-82
2021/08/19 01:04:41;;;;;;;6.57;3.03;;;15.70;99.90;;;;;;5050921;28;20036;-83
2021/08/19 01:07:08;;;;;;;3.58;2.35;;;15.70;99.90;;;;;;5051779;28;20087;-82
2021/08/19 01:09:35;;;;;;;3.63;2.80;;;15.80;99.90;;;;;;5054849;28;20037;-82
2021/08/19 01:12:05;;;;;;;3.65;1.73;;;15.90;99.90;;;;;;5054507;28;20048;-82
2021/08/19 01:14:32;;;;;;;3.40;2.50;;;15.60;99.90;;;;;;5055040;28;20045;-82
2021/08/19 01:17:06;;;;;;;2.78;2.08;;;15.60;99.90;;;;;;5053880;28;20084;-82
2021/08/19 01:19:32;;;;;;;3.33;2.80;;;15.60;99.90;;;;;;5054855;28;20063;-82
2021/08/19 01:21:58;;;;;;;4.88;2.58;;;15.70;99.90;;;;;;5054251;28;20545;-83
2021/08/19 01:24:24;;;;;;;;;;;15.70;99.90;;;;;;5054364;28;20437;-84
2021/08/19 01:26:50;;;;;;;3.22;2.17;;;15.60;99.90;;;;;;5052715;28;19916;-82
2021/08/19 01:29:16;;;;;;;4.75;2.47;;;15.70;99.90;;;;;;5054168;28;20048;-83
2021/08/19 01:31:59;;;;;;;5.20;2.75;;;15.60;99.90;;;;;;5053665;28;20037;-82
2021/08/19 01:34:25;;;;;;;2.47;2.15;;;15.60;99.90;;;;;;5054912;28;20040;-83
2021/08/19 01:36:51;;;;;;;3.65;2.20;;;15.80;99.90;;;;;;5054073;28;20033;-82
2021/08/19 01:39:18;;;;;;;5.15;2.78;;;15.70;99.90;;;;;;5053227;28;20082;-83
2021/08/19 01:41:43;;;;;;;5.53;2.45;;;15.60;99.90;;;;;;5035652;28;20116;-82
2021/08/19 01:44:09;;;;;;;;;;;15.70;99.90;;;;;;5054323;28;20048;-84
2021/08/19 01:46:35;;;;;;;7.03;2.03;;;15.80;99.90;;;;;;5054793;28;20333;-82
2021/08/19 01:49:02;;;;;;;;;;;15.70;99.90;;;;;;5054299;28;20037;-83
2021/08/19 01:51:28;;;;;;;6.15;2.95;;;15.60;99.90;;;;;;5053004;28;19932;-82
2021/08/19 01:53:54;;;;;;;4.28;2.35;;;15.70;99.90;;;;;;5054167;28;20063;-84
2021/08/19 01:56:23;;;;;;;7.25;2.63;;;15.40;99.90;;;;;;5051486;28;20037;-82
2021/08/19 01:58:51;;;;;;;3.63;2.20;;;15.60;99.90;;;;;;5060724;28;20075;-85
2021/08/19 02:01:21;;;;;;;3.05;2.28;;;15.90;99.90;;;;;;5054352;28;20483;-84
2021/08/19 02:03:48;;;;;;;3.72;2.35;;;15.80;99.90;;;;;;5053143;28;20411;-82
2021/08/19 02:06:14;;;;;;;3.20;2.42;;;15.70;99.90;;;;;;5052860;28;20033;-83
2021/08/19 02:08:40;;;;;;;10.43;2.92;;;15.80;99.90;;;;;;5052199;28;20090;-80
2021/08/19 02:11:06;;;;;;;;;;;15.80;99.90;;;;;;5047364;28;20074;-84
2021/08/19 02:13:32;;;;;;;4.22;2.47;;;15.80;99.90;;;;;;5046774;28;19917;-83
2021/08/19 02:15:59;;;;;;;4.47;2.17;;;15.80;99.90;;;;;;5052735;28;20491;-82
2021/08/19 02:18:25;;;;;;;3.08;2.38;;;15.80;99.90;;;;;;5052722;28;20041;-82
2021/08/19 02:20:51;;;;;;;6.18;2.65;;;16.10;99.90;;;;;;5054813;28;20033;-84
2021/08/19 02:23:17;;;;;;;;;;;16.00;99.90;;;;;;5054498;28;20039;-83
2021/08/19 02:25:43;;;;;;;2.50;2.03;;;15.90;99.90;;;;;;5053622;28;19917;-82
2021/08/19 02:28:09;;;;;;;;;;;15.70;99.90;;;;;;5054966;28;20040;-82
2021/08/19 02:30:34;;;;;;;2.30;2.00;;;16.00;99.90;;;;;;5053871;28;19921;-82
2021/08/19 02:33:01;;;;;;;8.02;3.53;;;15.80;99.90;;;;;;5052064;28;20033;-82
2021/08/19 02:35:27;;;;;;;5.50;2.65;;;15.90;99.90;;;;;;5052080;28;20090;-83
2021/08/19 02:37:55;;;;;;;3.80;2.63;;;15.80;99.90;;;;;;5051701;28;20044;-83
2021/08/19 02:40:25;;;;;;;4.63;3.00;;;15.90;99.90;;;;;;5053192;28;20451;-83
2021/08/19 02:42:51;;;;;;;7.63;3.00;;;15.90;99.90;;;;;;5052617;28;20033;-83
2021/08/19 02:45:17;;;;;;;3.38;2.40;;;16.00;99.90;;;;;;5053204;28;20059;-82
2021/08/19 02:47:43;;;;;;;6.70;3.00;;;16.10;99.90;;;;;;5052205;28;20041;-82
2021/08/19 02:50:10;;;;;;;;;;;15.90;99.90;;;;;;5053937;28;20041;-82
2021/08/19 02:52:35;;;;;;;3.33;2.63;;;16.10;99.90;;;;;;5056967;28;19916;-82
2021/08/19 02:55:02;;;;;;;;;;;16.20;99.90;;;;;;5054041;28;20041;-81
2021/08/19 02:57:28;;;;;;;6.72;2.40;;;16.10;99.90;;;;;;5042273;28;19917;-82
2021/08/19 02:59:53;;;;;;;3.50;2.33;;;15.90;99.90;;;;;;5052351;28;20070;-82
2021/08/19 03:02:19;;;;;;;4.43;2.38;;;16.10;99.90;;;;;;5050539;28;20040;-82
2021/08/19 03:04:45;;;;;;;;;;;16.10;99.90;;;;;;5052637;28;20044;-83
2021/08/19 03:07:12;;;;;;;5.05;2.92;;;16.00;99.90;;;;;;5052705;28;20050;-83
2021/08/19 03:09:38;;;;;;;6.82;2.55;;;16.10;99.90;;;;;;5035055;28;20495;-83
2021/08/19 03:12:04;;;;;;;4.28;2.45;;;16.20;99.90;;;;;;5035187;28;20052;-82
2021/08/19 03:14:31;;;;;;;7.03;3.50;;;16.20;99.90;;;;;;5052452;28;20060;-84
2021/08/19 03:16:57;;;;;;;6.43;4.20;;;16.00;99.90;;;;;;5051289;28;20049;-82
2021/08/19 03:19:23;;;;;;;4.28;3.00;;;16.00;99.90;;;;;;5050969;28;20041;-84
2021/08/19 03:21:49;;;;;;;5.25;3.13;;;16.00;99.90;;;;;;5052171;28;20112;-83
2021/08/19 03:24:15;;;;;;;;;;;16.00;99.90;;;;;;5051417;28;20470;-82
2021/08/19 03:26:41;;;;;;;5.07;3.25;;;16.20;99.90;;;;;;5052026;28;19916;-82
2021/08/19 03:29:07;;;;;;;;;;;16.30;99.90;;;;;;5049248;28;20091;-82
2021/08/19 03:31:32;;;;;;;4.88;3.25;;;15.90;99.90;;;;;;5046327;28;20325;-83
2021/08/19 03:33:58;;;;;;;9.95;3.33;;;15.90;99.90;;;;;;5049514;28;20036;-82
2021/08/19 03:36:26;;;;;;;5.18;3.92;;;15.90;99.90;;;;;;5052491;28;20037;-83
2021/08/19 03:38:52;;;;;;;8.10;4.18;;;15.70;99.90;;;;;;5053124;28;20047;-83
2021/08/19 03:41:19;;;;;;;2.55;2.17;;;16.00;99.90;;;;;;5052563;28;20056;-82
2021/08/19 03:43:46;;;;;;;7.78;3.45;;;15.90;99.90;;;;;;5051672;28;20410;-82
2021/08/19 03:46:12;;;;;;;7.05;3.28;;;15.90;99.90;;;;;;5051678;28;20033;-83
2021/08/19 03:48:38;;;;;;;7.43;3.75;;;16.00;99.90;;;;;;5053354;28;20071;-83
2021/08/19 03:51:04;;;;;;;5.15;2.88;;;15.80;99.90;;;;;;5050969;28;20057;-83
2021/08/19 03:53:31;;;;;;;5.78;2.95;;;16.00;99.90;;;;;;5051897;28;20037;-82
2021/08/19 03:55:57;;;;;;;;;;;15.90;99.90;;;;;;5050743;28;20033;-82
2021/08/19 03:58:23;;;;;;;11.90;4.50;;;16.10;99.90;;;;;;5053689;28;20396;-83
2021/08/19 04:00:50;;;;;;;8.88;3.72;;;15.90;99.90;;;;;;5051575;28;20490;-83
2021/08/19 04:03:16;;;;;;;9.82;3.35;;;16.00;99.90;;;;;;5051221;28;20033;-82
2021/08/19 04:05:43;;;;;;;8.60;3.72;;;15.90;99.90;;;;;;5050875;28;20090;-82
2021/08/19 04:08:09;;;;;;;5.30;3.90;;;15.90;99.90;;;;;;5050926;28;20033;-83
2021/08/19 04:10:35;;;;;;;5.65;3.72;;;16.10;99.90;;;;;;5051407;28;20033;-83
2021/08/19 04:13:01;;;;;;;3.65;3.08;;;16.00;99.90;;;;;;5051563;28;20041;-84
2021/08/19 04:15:27;;;;;;;4.07;3.17;;;15.90;99.90;;;;;;5052277;28;20041;-83
2021/08/19 04:17:53;;;;;;;;;;;15.90;99.90;;;;;;5033313;28;20159;-83
2021/08/19 04:20:19;;;;;;;4.43;3.38;;;15.90;99.90;;;;;;5052180;28;19920;-83
2021/08/19 04:22:48;;;;;;;5.80;3.83;;;15.90;99.90;;;;;;5052404;28;20379;-85
2021/08/19 04:25:16;;;;;;;5.28;3.63;;;15.70;99.90;;;;;;5018074;28;20110;-83
2021/08/19 04:27:42;;;;;;;4.97;3.42;;;15.80;99.90;;;;;;5051812;28;20055;-86
2021/08/19 04:30:09;;;;;;;6.20;4.03;;;16.00;99.90;;;;;;5051072;28;20106;-84
2021/08/19 04:32:35;;;;;;;8.60;4.32;;;16.00;99.90;;;;;;5050070;28;20483;-82
2021/08/19 04:35:01;;;;;;;4.95;4.32;;;16.20;99.90;;;;;;5052355;28;20037;-83
2021/08/19 04:37:27;;;;;;;8.63;4.57;;;16.00;99.90;;;;;;5051944;28;20036;-83
2021/08/19 04:39:53;;;;;;;8.35;4.72;;;15.90;99.90;;;;;;5051609;28;20059;-83
2021/08/19 04:42:19;;;;;;;7.20;4.35;;;15.90;99.90;;;;;;5054082;28;20041;-83
2021/08/19 04:44:45;;;;;;;6.43;3.95;;;16.20;99.90;;;;;;5054866;28;20036;-84
2021/08/19 04:47:12;;;;;;;5.50;4.63;;;16.00;99.90;;;;;;5055142;28;20037;-83
2021/08/19 04:49:38;;;;;;;8.70;5.75;;;16.00;99.90;;;;;;5038552;28;20059;-83
2021/08/19 04:52:07;;;;;;;7.15;3.85;;;15.90;99.90;;;;;;5045580;28;20041;-84
2021/08/19 04:54:33;;;;;;;6.60;4.05;;;16.10;99.90;;;;;;5047396;28;20060;-84
2021/08/19 04:56:59;;;;;;;;;;;16.10;99.90;;;;;;5037350;28;20032;-82
2021/08/19 04:59:25;;;;;;;9.60;4.97;;;16.20;99.90;;;;;;5055877;28;20339;-83
2021/08/19 05:01:50;;;;;;;;;;;16.20;99.90;;;;;;5055757;28;20087;-83
2021/08/19 05:04:16;;;;;;;6.70;3.67;;;16.10;99.90;;;;;;5054689;28;20003;-84
2021/08/19 05:06:42;;;;;;;8.52;5.07;;;16.20;99.90;;;;;;5055201;28;20041;-84
2021/08/19 05:09:08;;;;;;;6.22;3.75;;;16.40;99.90;;;;;;5056533;28;20075;-83
2021/08/19 05:11:36;;;;;;;8.85;4.30;;;16.20;99.90;;;;;;5051211;28;20037;-83
2021/08/19 05:14:03;;;;;;;9.43;4.88;;;16.40;99.90;;;;;;5023114;28;20032;-84
2021/08/19 05:16:32;;;;;;;7.93;5.50;;;16.10;99.90;;;;;;5039619;28;20074;-82
2021/08/19 05:18:59;;;;;;;4.40;3.88;;;16.30;99.90;;;;;;5059127;28;20094;-86
2021/08/19 05:21:25;;;;;;;6.93;2.78;;;16.30;99.90;;;;;;5058039;28;20032;-84
2021/08/19 05:23:52;;;;;;;6.70;4.13;;;16.40;99.90;;;;;;5054252;28;20037;-82
2021/08/19 05:26:18;;;;;;;6.75;4.18;;;16.30;99.90;;;;;;5055513;28;20471;-83
2021/08/19 05:28:45;;;;;;;7.50;4.05;;;16.30;99.90;;;;;;5054874;28;20048;-84
2021/08/19 05:31:12;;;;;;;7.82;4.10;;;16.40;99.90;;;;;;5054949;28;20061;-82
2021/08/19 05:33:40;;;;;;;9.18;4.85;;;16.20;99.90;;;;;;5052470;28;20033;-83
2021/08/19 05:36:09;;;;;;;;;;;16.40;99.90;;;;;;5055261;28;20403;-83
2021/08/19 05:38:36;;;;;;;8.75;4.82;;;16.30;99.90;;;;;;5053057;28;19927;-84
2021/08/19 05:41:03;;;;;;;7.00;4.18;;;16.40;99.90;;;;;;5052792;28;20538;-84
2021/08/19 05:43:38;;;;;;;5.80;3.80;;;16.40;99.90;;;;;;5053843;28;20123;-83
2021/08/19 05:46:06;;;;;;;9.70;5.22;;;16.50;99.90;;;;;;5053749;28;20117;-84
2021/08/19 05:48:33;;;;;;;7.03;4.78;;;16.50;99.90;;;;;;5053859;28;20554;-83
2021/08/19 05:50:59;;;;;;;14.18;4.90;;;16.50;99.90;;;;;;5054561;28;20043;-83
2021/08/19 05:53:25;;;;;;;4.95;3.10;;;16.60;99.90;;;;;;5052568;28;20475;-83
2021/08/19 05:55:51;;;;;;;6.22;3.92;;;16.60;99.90;;;;;;5055055;28;20045;-82
2021/08/19 05:58:17;;;;;;;6.43;4.10;;;16.40;99.90;;;;;;5041439;28;20098;-85
2021/08/19 06:00:47;;;;;;;5.07;3.70;;;16.60;99.90;;;;;;5054806;28;21152;-84
2021/08/19 06:03:15;;;;;;;4.50;3.83;;;16.40;99.90;;;;;;5053629;28;20048;-83
2021/08/19 06:05:45;;;;;;;5.75;3.42;;;16.60;99.90;;;;;;5056603;28;20037;-83
2021/08/19 06:08:11;;;;;;;4.85;3.30;;;16.50;99.90;;;;;;5057741;28;20048;-83
2021/08/19 06:10:38;;;;;;;5.63;3.88;;;16.50;99.90;;;;;;5054014;28;20035;-83
2021/08/19 06:13:04;;;;;;;8.80;4.45;;;16.80;99.90;;;;;;5054684;28;20048;-84
2021/08/19 06:15:30;;;;;;;9.48;4.85;;;16.80;99.90;;;;;;5056343;28;20020;-84
2021/08/19 06:17:58;;;;;;;6.03;3.55;;;16.80;99.90;;;;;;5053223;28;20053;-84
2021/08/19 06:20:24;;;;;;;7.45;4.18;;;16.80;99.90;;;;;;5042400;28;20065;-84
2021/08/19 06:22:52;;;;;;;9.07;4.20;;;16.80;99.90;;;;;;5053362;28;20119;-86
2021/08/19 06:25:19;;;;;;;6.53;4.15;;;16.60;99.90;;;;;;5042712;28;20056;-85
2021/08/19 06:27:46;;;;;;;6.63;3.88;;;16.90;99.90;;;;;;5054617;28;20486;-88
2021/08/19 06:30:13;;;;;;;5.20;3.75;;;16.90;99.90;;;;;;5035432;28;20439;-86
2021/08/19 06:32:39;;;;;;;5.90;3.80;;;16.80;99.90;;;;;;5054807;28;20045;-87
2021/08/19 06:35:07;;;;;;;7.82;3.78;;;17.00;99.90;;;;;;5053550;28;20044;-84
2021/08/19 06:37:39;;;;;;;17.88;5.50;;;17.20;99.90;;;;;;5055023;28;20116;-88
2021/08/19 06:40:07;;;;;;;7.38;4.50;;;17.00;99.90;;;;;;5050427;28;20071;-84
2021/08/19 06:42:34;;;;;;;11.73;5.00;;;16.90;99.90;;;;;;5052957;28;20037;-84
2021/08/19 06:45:00;;;;;;;6.10;3.78;;;17.10;99.90;;;;;;5053404;28;20036;-84
2021/08/19 06:47:26;;;;;;;12.88;6.05;;;16.70;99.90;;;;;;5052016;28;20059;-84
2021/08/19 06:49:52;;;;;;;8.73;4.45;;;16.90;99.90;;;;;;5053013;28;20041;-85
2021/08/19 06:52:18;;;;;;;5.20;3.75;;;16.90;99.90;;;;;;5051914;28;20055;-83
2021/08/19 06:54:44;;;;;;;8.27;4.43;;;16.60;99.90;;;;;;5052041;28;20041;-85
2021/08/19 06:57:10;;;;;;;;;;;16.90;99.90;;;;;;5051317;28;20455;-81
2021/08/19 06:59:36;;;;;;;5.68;3.50;;;16.80;99.90;;;;;;5068588;28;19935;-81
2021/08/19 07:02:03;;;;;;;;;;;16.70;99.90;;;;;;5062978;28;20049;-80
2021/08/19 07:04:33;;;;;;;5.55;3.38;;;17.00;99.90;;;;;;5075930;28;19917;-81
2021/08/19 07:06:59;;;;;;;5.30;2.78;;;17.00;99.90;;;;;;5062961;28;20033;-81
2021/08/19 07:09:25;;;;;;;5.75;3.40;;;16.90;99.90;;;;;;5050137;28;20099;-81
2021/08/19 07:11:51;;;;;;;;;;;16.80;99.90;;;;;;5046500;28;20041;-83
2021/08/19 07:14:17;;;;;;;5.85;3.38;;;16.90;99.90;;;;;;5058575;28;19923;-81
2021/08/19 07:16:45;;;;;;;4.47;3.15;;;16.70;99.90;;;;;;5065624;28;20044;-82
2021/08/19 07:19:25;;;;;;;5.40;3.20;;;16.90;99.90;;;;;;5051511;28;20603;-83
2021/08/19 07:21:52;;;;;;;4.72;2.88;;;16.70;99.90;;;;;;5064560;28;20049;-83
2021/08/19 07:24:37;;;;;;;4.50;3.28;;;16.90;99.90;;;;;;5066509;28;20040;-82
2021/08/19 07:27:30;;;;;;;6.03;3.50;;;17.00;99.90;;;;;;5065596;28;20037;-82
2021/08/19 07:29:56;;;;;;;6.53;3.40;;;16.70;99.90;;;;;;5039313;28;20048;-82
2021/08/19 07:32:22;;;;;;;8.13;2.83;;;16.80;99.90;;;;;;5058639;28;20102;-81
2021/08/19 07:34:48;;;;;;;6.35;2.70;;;17.10;99.90;;;;;;5048186;28;20064;-82
2021/08/19 07:37:14;;;;;;;;;;;17.20;99.90;;;;;;5050919;28;20049;-82
2021/08/19 07:39:40;;;;;;;3.42;2.33;;;17.30;99.90;;;;;;5050406;28;20007;-82
2021/08/19 07:42:06;;;;;;;7.63;3.63;;;17.40;99.90;;;;;;5052101;28;20515;-81
2021/08/19 07:44:32;;;;;;;;;;;17.40;99.90;;;;;;5050729;28;20132;-81
2021/08/19 07:46:58;;;;;;;12.02;2.65;;;17.50;99.90;;;;;;5050416;28;19924;-82
2021/08/19 07:49:23;;;;;;;;;;;17.50;99.90;;;;;;5050313;28;20497;-82
2021/08/19 07:51:49;;;;;;;5.75;2.47;;;17.40;99.90;;;;;;5050989;28;19943;-82
2021/08/19 07:54:17;;;;;;;2.63;2.00;;;17.40;99.90;;;;;;5051862;28;20035;-81
2021/08/19 07:56:43;;;;;;;3.58;2.72;;;17.30;99.90;;;;;;5047051;28;20108;-82
2021/08/19 07:59:10;;;;;;;3.42;2.40;;;17.20;99.90;;;;;;5052797;28;20037;-80
2021/08/19 08:01:35;;;;;;;6.15;2.83;;;17.10;99.90;;;;;;5050148;28;20041;-84
2021/08/19 08:04:03;;;;;;;3.63;2.50;;;17.00;99.90;;;;;;5049086;28;20075;-82
2021/08/19 08:06:29;;;;;;;3.50;2.25;;;16.90;99.90;;;;;;5051991;28;20514;-82
2021/08/19 08:08:54;;;;;;;2.00;1.42;;;16.80;99.90;;;;;;5050803;28;20146;-81
2021/08/19 08:11:20;;;;;;;;;;;16.80;99.90;;;;;;5044851;28;20112;-81
2021/08/19 08:13:46;;;;;;;3.60;1.70;;;16.60;99.90;;;;;;5051476;28;20050;-82
2021/08/19 08:16:12;;;;;;;;;;;16.50;99.90;;;;;;5045082;28;20040;-81
2021/08/19 08:18:38;;;;;;;2.28;1.50;;;16.30;99.90;;;;;;5051519;28;19921;-81
2021/08/19 08:21:03;;;;;;;;;;;16.30;99.90;;;;;;5007777;28;20037;-80
2021/08/19 08:23:35;;;;;;;1.45;1.15;;;16.30;99.90;;;;;;5052785;28;19916;-80
2021/08/19 08:26:01;;;;;;;3.38;2.15;;;16.30;99.90;;;;;;5045649;28;20043;-80
2021/08/19 08:28:30;;;;;;;2.40;1.98;;;16.40;99.90;;;;;;5050266;28;20119;-79
2021/08/19 08:30:58;;;;;;;2.90;2.10;;;16.50;99.90;;;;;;5052233;28;20091;-78
2021/08/19 08:33:24;;;;;;;2.25;1.75;;;16.50;99.90;;;;;;5050517;28;20439;-77
2021/08/19 08:35:51;;;;;;;2.70;2.00;;;16.60;99.90;;;;;;5050681;28;20383;-78
2021/08/19 08:38:19;;;;;;;3.10;1.65;;;16.60;99.90;;;;;;5050879;28;20067;-78
2021/08/19 08:40:47;;;;;;;4.45;2.25;;;16.80;99.90;;;;;;5051401;28;20086;-79
2021/08/19 08:43:16;;;;;;;4.60;2.28;;;16.90;99.90;;;;;;5051167;28;20037;-80
2021/08/19 08:45:45;;;;;;;3.95;1.88;;;16.90;99.90;;;;;;5050535;28;20048;-83
2021/08/19 08:48:15;;;;;;;2.17;1.50;;;17.00;99.90;;;;;;5046545;28;20055;-82
2021/08/19 08:50:42;;;;;;;1.35;1.25;;;17.00;99.90;;;;;;5048703;28;20103;-82
2021/08/19 08:53:09;;;;;;;2.85;1.88;;;17.00;99.90;;;;;;5052165;28;20033;-79
2021/08/19 08:55:35;;;;;;;3.05;2.22;;;17.00;99.90;;;;;;5051452;28;20048;-79
2021/08/19 08:58:01;;;;;;;2.45;1.75;;;17.00;99.90;;;;;;5057926;28;20041;-81
2021/08/19 09:00:27;;;;;;;2.28;1.90;;;17.20;99.90;;;;;;5049375;28;20118;-79
2021/08/19 09:02:53;;;;;;;1.90;1.70;;;17.30;99.90;;;;;;5046340;28;20041;-80
2021/08/19 09:05:23;;;;;;;;;;;17.30;99.90;;;;;;5049535;28;20045;-80
2021/08/19 09:07:59;;;;;;;1.70;1.45;;;17.50;99.90;;;;;;5054874;28;19947;-80
2021/08/19 09:10:28;;;;;;;;;;;17.60;99.90;;;;;;5056502;28;20056;-81
2021/08/19 09:12:56;;;;;;;3.53;1.40;;;17.70;99.90;;;;;;5056144;28;19923;-80
2021/08/19 09:15:24;;;;;;;2.55;1.33;;;17.80;99.90;;;;;;5052988;28;20407;-80
2021/08/19 09:17:55;;;;;;;1.25;1.15;;;17.90;99.90;;;;;;5051692;28;20075;-81
2021/08/19 09:20:42;;;;;;;2.75;1.77;;;18.00;99.90;;;;;;5053207;28;20130;-82
2021/08/19 09:23:14;;;;;;;3.30;1.35;;;18.10;99.90;;;;;;5040111;28;20051;-80
2021/08/19 09:25:46;;;;;;;2.50;1.58;;;18.00;99.90;;;;;;5049485;28;20178;-80
2021/08/19 09:28:24;;;;;;;1.88;1.65;;;18.00;99.90;;;;;;5049095;28;20170;-80
2021/08/19 09:30:54;;;;;;;2.95;1.83;;;18.00;99.90;;;;;;5052496;28;20059;-79
2021/08/19 09:33:25;;;;;;;4.38;2.10;;;18.10;99.90;;;;;;5051133;28;20143;-81
2021/08/19 09:35:53;;;;;;;2.17;1.55;;;18.30;99.90;;;;;;5052423;28;20823;-81
2021/08/19 09:38:21;;;;;;;2.58;1.55;;;18.20;99.90;;;;;;5050391;28;20055;-80
2021/08/19 09:41:12;;;;;;;3.05;1.75;;;18.20;99.90;;;;;;5052006;28;20029;-81
2021/08/19 09:43:48;;;;;;;3.17;1.75;;;18.10;99.90;;;;;;5056683;28;20032;-83
2021/08/19 09:46:16;;;;;;;2.35;1.83;;;18.10;99.90;;;;;;5042289;28;20475;-84
2021/08/19 09:48:45;;;;;;;4.50;2.13;;;18.20;99.90;;;;;;5032826;28;20096;-82
2021/08/19 09:51:16;;;;;;;5.53;2.90;;;18.20;99.90;;;;;;5043859;28;20033;-82
2021/08/19 09:53:44;;;;;;;5.05;2.92;;;18.30;99.90;;;;;;5054886;28;20091;-84
2021/08/19 09:56:12;;;;;;;3.33;2.38;;;18.30;99.90;;;;;;5052161;28;20459;-82
2021/08/19 09:58:41;;;;;;;3.33;2.25;;;18.40;99.90;;;;;;5054665;28;20494;-86
2021/08/19 10:01:07;;;;;;;2.17;1.50;;;18.40;99.90;;;;;;5036695;28;20410;-82
2021/08/19 10:03:33;;;;;;;;;;;18.50;99.90;;;;;;5026239;28;20056;-82
2021/08/19 10:06:07;;;;;;;3.45;1.67;;;18.50;99.90;;;;;;5051246;28;19921;-85
2021/08/19 10:08:36;;;;;;;6.00;3.03;;;18.60;99.90;;;;;;5036950;28;20068;-80
2021/08/19 10:11:02;;;;;;;;;;;19.00;99.90;;;;;;5047539;28;20068;-81
2021/08/19 10:13:29;;;;;;;5.20;2.92;;;18.80;99.90;;;;;;5055495;28;19920;-81
2021/08/19 10:15:55;;;;;;;3.63;2.03;;;18.90;99.90;;;;;;5052307;28;20041;-82
2021/08/19 10:18:28;;;;;;;4.55;2.60;;;18.80;99.90;;;;;;5050178;28;20094;-82
2021/08/19 10:21:09;;;;;;;4.65;3.10;;;18.80;99.90;;;;;;5049907;28;20045;-83
2021/08/19 10:23:37;;;;;;;5.15;2.78;;;18.70;99.90;;;;;;5050928;28;20075;-82
2021/08/19 10:26:07;;;;;;;4.45;2.17;;;18.80;99.90;;;;;;5049434;28;20095;-83
2021/08/19 10:28:56;;;;;;;2.67;2.20;;;18.80;99.90;;;;;;5053792;28;20052;-83
2021/08/19 10:31:43;;;;;;;3.22;2.33;;;18.80;99.90;;;;;;5041147;28;20033;-83
2021/08/19 10:34:10;;;;;;;;;;;18.70;99.90;;;;;;5051338;28;20102;-85
2021/08/19 10:36:42;;;;;;;5.05;2.78;;;18.60;99.90;;;;;;5053568;28;19990;-84
2021/08/19 10:39:25;;;;;;;3.65;2.42;;;18.60;99.90;;;;;;5051843;28;20060;-85
2021/08/19 10:41:55;;;;;;;5.38;3.28;;;18.60;99.90;;;;;;5054072;28;20086;-88
2021/08/19 10:44:44;;;;;;;3.30;2.40;;;18.60;99.90;;;;;;5052370;28;20057;-85
2021/08/19 10:47:35;;;;;;;3.05;1.98;;;18.50;99.90;;;;;;5045015;28;20037;-87
2021/08/19 10:50:36;;;;;;;9.43;2.97;;;18.30;99.90;;;;;;5052162;28;20041;-84
2021/08/19 10:53:15;;;;;;;4.80;2.80;;;18.30;99.90;;;;;;5053626;28;20055;-84
2021/08/19 10:55:52;;;;;;;2.97;1.92;;;18.20;99.90;;;;;;5054141;28;20048;-85
2021/08/19 10:58:35;;;;;;;3.55;2.28;;;18.20;99.90;;;;;;5038833;28;20061;-89
2021/08/19 11:01:13;;;;;;;2.33;1.85;;;18.30;99.90;;;;;;5066739;28;20490;-87
2021/08/19 11:03:39;;;;;;;5.05;2.22;;;18.30;99.90;;;;;;5054208;28;20045;-86
2021/08/19 11:06:06;;;;;;;;;;;18.40;99.90;;;;;;5052139;28;20040;-86
2021/08/19 11:08:44;;;;;;;4.15;2.88;;;18.60;99.90;;;;;;5052128;28;19962;-87
2021/08/19 11:11:13;;;;;;;3.28;2.13;;;18.60;99.90;;;;;;5053227;28;20086;-85
2021/08/19 11:13:39;;;;;;;4.35;3.15;;;18.70;99.90;;;;;;5053059;28;20045;-88
2021/08/19 11:16:11;;;;;;;7.85;2.58;;;18.80;99.90;;;;;;5052293;28;20056;-87
2021/08/19 11:18:39;;;;;;;3.90;2.38;;;18.70;99.90;;;;;;5052968;28;20037;-86
2021/08/19 11:21:08;;;;;;;5.05;2.90;;;18.50;99.90;;;;;;5044267;28;20090;-86
2021/08/19 11:23:42;;;;;;;5.22;2.00;;;18.30;99.90;;;;;;5051543;28;20043;-85
2021/08/19 11:26:15;;;;;;;2.72;2.08;;;18.20;99.90;;;;;;5052407;28;20471;-85
2021/08/19 11:28:44;;;;;;;3.53;2.17;;;18.30;99.90;;;;;;5050164;28;20037;-86
2021/08/19 11:31:20;;;;;;;4.45;2.65;;;18.20;99.90;;;;;;5052835;28;20061;-85
2021/08/19 11:33:49;;;;;;;6.47;2.42;;;18.20;99.90;;;;;;5053316;28;20052;-85
2021/08/19 11:36:16;;;;;;;3.58;2.22;;;18.30;99.90;;;;;;5052399;28;20041;-87
2021/08/19 11:38:42;;;;;;;3.58;2.15;;;18.30;99.90;;;;;;5051639;28;20076;-85
2021/08/19 11:41:17;;;;;;;5.28;2.42;;;18.40;99.90;;;;;;5053589;28;20041;-84
2021/08/19 11:43:44;;;;;;;4.45;2.25;;;18.40;99.90;;;;;;5058949;28;20459;-87
2021/08/19 11:46:19;;;;;;;5.68;2.47;;;18.40;99.90;;;;;;5056278;28;20047;-86
2021/08/19 11:48:55;;;;;;;2.42;2.00;;;18.40;99.90;;;;;;5052080;28;20064;-85
2021/08/19 11:51:24;;;;;;;4.50;2.53;;;18.40;99.90;;;;;;5052364;28;20056;-86
2021/08/19 11:54:01;;;;;;;3.08;2.25;;;18.40;99.90;;;;;;5056292;28;20067;-84
2021/08/19 11:56:34;;;;;;;2.85;1.73;;;18.50;99.90;;;;;;5055460;28;20451;-83
2021/08/19 11:59:13;;;;;;;3.08;1.90;;;18.60;99.90;;;;;;5034975;28;20037;-82
2021/08/19 12:01:51;;;;;;;4.72;2.30;;;18.80;99.90;;;;;;5050129;28;20485;-83
2021/08/19 12:04:33;;;;;;;2.60;1.48;;;18.90;99.90;;;;;;5052402;28;20036;-84
2021/08/19 12:07:00;;;;;;;5.53;3.08;;;19.10;99.90;;;;;;5055436;28;20040;-83
2021/08/19 12:09:28;;;;;;;2.50;1.60;;;19.20;99.90;;;;;;5051483;28;20079;-81
2021/08/19 12:11:55;;;;;;;3.08;1.73;;;19.30;99.90;;;;;;5052437;28;20371;-83
2021/08/19 12:14:26;;;;;;;5.35;2.70;;;19.30;99.90;;;;;;5051212;28;20064;-81
2021/08/19 12:16:55;;;;;;;6.65;2.30;;;19.20;99.90;;;;;;5050859;28;20091;-81
2021/08/19 12:19:23;;;;;;;3.80;2.33;;;19.20;99.90;;;;;;5050837;28;20044;-81
2021/08/19 12:21:52;;;;;;;5.32;2.17;;;19.20;99.90;;;;;;5052180;28;20094;-81
2021/08/19 12:24:20;;;;;;;3.08;1.63;;;19.20;99.90;;;;;;5050983;28;20065;-83
2021/08/19 12:27:20;;;;;;;2.90;2.13;;;19.30;99.90;;;;;;5051223;28;20132;-81
2021/08/19 12:29:49;;;;;;;3.88;2.00;;;19.20;99.90;;;;;;5050593;28;20106;-81
2021/08/19 12:32:22;;;;;;;3.63;2.15;;;19.30;99.90;;;;;;5050052;28;20033;-83
2021/08/19 12:35:17;;;;;;;4.57;2.22;;;19.40;99.90;;;;;;5054333;28;20059;-80
2021/08/19 12:37:55;;;;;;;2.97;2.10;;;19.50;99.90;;;;;;5048457;28;20132;-80
2021/08/19 12:40:27;;;;;;;5.30;2.40;;;19.70;99.90;;;;;;5049811;28;20730;-84
2021/08/19 12:43:07;;;;;;;4.53;1.80;;;19.70;99.90;;;;;;5049214;28;20516;-80
2021/08/19 12:45:33;;;;;;;6.13;2.03;;;19.60;99.90;;;;;;5048280;28;20044;-81
2021/08/19 12:48:02;;;;;;;4.90;2.65;;;19.40;99.90;;;;;;5050101;28;20048;-81
2021/08/19 12:50:28;;;;;;;5.60;2.20;;;19.40;99.90;;;;;;5050910;28;20075;-81
2021/08/19 12:53:15;;;;;;;2.47;1.65;;;19.40;99.90;;;;;;5053637;28;20029;-80
2021/08/19 12:55:42;;;;;;;2.38;1.73;;;19.30;99.90;;;;;;5051256;28;20121;-83
2021/08/19 12:58:08;;;;;;;4.18;2.20;;;19.20;99.90;;;;;;5050683;28;20087;-80
2021/08/19 13:00:36;;;;;;;10.82;2.40;;;19.20;99.90;;;;;;5049963;28;20045;-81
2021/08/19 13:03:03;;;;;;;5.95;2.25;;;19.10;99.90;;;;;;5053682;28;20041;-81